Time;durP1;ratioP1;P1;durP2;ratioP2;P2;SDS_P1;SDS_P2;PMS_P1;PMS_P2;Temp;Humidity;BMP_temperature;BMP_pressure;BME280_temperature;BME280_humidity;BME280_pressure;Samples;Min_cycle;Max_cycle;Signal;HPM_P1;HPM_P2
2022/05/14 00:01:13;;;;;;;14.40;3.17;;;13.20;99.90;;;;;;5021405;28;20080;-77
2022/05/14 00:03:39;;;;;;;9.90;3.10;;;13.20;99.90;;;;;;5022472;28;20034;-76
2022/05/14 00:06:09;;;;;;;13.65;3.10;;;13.30;99.90;;;;;;5024067;28;20385;-77
2022/05/14 00:08:35;;;;;;;16.13;3.47;;;13.30;99.90;;;;;;5021469;28;20037;-77
2022/05/14 00:13:46;;;;;;;11.30;3.10;;;13.20;99.90;;;;;;5020283;28;20040;-77
2022/05/14 00:16:13;;;;;;;9.73;3.28;;;13.20;99.90;;;;;;5026976;28;20033;-77
2022/05/14 00:18:39;;;;;;;12.30;3.28;;;13.10;99.90;;;;;;5022635;28;20029;-76
2022/05/14 00:21:05;;;;;;;14.23;3.30;;;13.10;99.90;;;;;;5019148;28;20033;-76
2022/05/14 00:23:31;;;;;;;8.50;3.00;;;13.00;99.90;;;;;;5020367;28;20026;-75
2022/05/14 00:25:57;;;;;;;12.25;3.25;;;13.00;99.90;;;;;;5025965;28;20032;-75
2022/05/14 00:28:22;;;;;;;15.25;3.58;;;13.10;99.90;;;;;;5026670;28;20037;-76
2022/05/14 00:30:48;;;;;;;12.00;4.05;;;13.00;99.90;;;;;;5026319;28;20488;-77
2022/05/14 00:33:14;;;;;;;11.85;3.10;;;13.00;99.90;;;;;;5024365;28;20554;-77
2022/05/14 00:35:40;;;;;;;11.95;3.17;;;13.00;99.90;;;;;;5021422;28;20032;-76
2022/05/14 00:38:08;;;;;;;11.95;3.25;;;12.90;99.90;;;;;;5022614;28;20038;-76
2022/05/14 00:40:41;;;;;;;13.05;3.90;;;12.90;99.90;;;;;;5026162;28;20026;-77
2022/05/14 00:43:07;;;;;;;17.48;4.35;;;12.90;99.90;;;;;;5019761;28;20048;-77
2022/05/14 00:45:39;;;;;;;17.63;4.82;;;12.80;99.90;;;;;;5023684;28;20057;-77
2022/05/14 00:48:06;;;;;;;16.23;4.10;;;12.80;99.90;;;;;;5022476;28;20030;-77
2022/05/14 00:50:34;;;;;;;11.63;3.97;;;12.70;99.90;;;;;;5019758;28;20061;-77
2022/05/14 00:53:12;;;;;;;12.85;4.55;;;12.70;99.90;;;;;;5028550;28;20061;-77
2022/05/14 00:55:38;;;;;;;9.95;4.47;;;12.70;99.90;;;;;;5013631;28;20445;-77
2022/05/14 00:58:05;;;;;;;9.85;4.10;;;12.60;99.90;;;;;;5022733;28;20073;-77
2022/05/14 01:00:32;;;;;;;19.10;5.03;;;12.70;99.90;;;;;;5019660;28;20069;-76
2022/05/14 01:02:57;;;;;;;16.13;5.07;;;12.60;99.90;;;;;;5026319;28;20022;-76
2022/05/14 01:05:24;;;;;;;15.02;5.05;;;12.60;99.90;;;;;;5028813;28;20036;-77
2022/05/14 01:07:52;;;;;;;13.05;5.95;;;12.50;99.90;;;;;;5023453;28;20022;-77
2022/05/14 01:10:20;;;;;;;11.50;6.18;;;12.60;99.90;;;;;;5020972;28;20066;-77
2022/05/14 01:13:00;;;;;;;18.15;6.85;;;12.50;99.90;;;;;;5011300;28;20053;-78
2022/05/14 01:15:48;;;;;;;16.25;6.53;;;12.50;99.90;;;;;;5019494;28;20026;-77
2022/05/14 01:18:13;;;;;;;15.88;6.45;;;12.40;99.90;;;;;;5027520;28;20033;-77
2022/05/14 01:20:44;;;;;;;16.90;7.38;;;12.40;99.90;;;;;;5024340;28;20394;-76
2022/05/14 01:26:36;;;;;;;16.27;6.60;;;12.30;99.90;;;;;;5001294;28;20088;-77
2022/05/14 01:29:03;;;;;;;18.55;7.07;;;12.40;99.90;;;;;;5024559;28;20033;-76
2022/05/14 01:31:30;;;;;;;17.48;6.85;;;12.30;99.90;;;;;;5018698;28;20113;-76
2022/05/14 01:34:00;;;;;;;10.88;6.88;;;12.30;99.90;;;;;;5022380;28;20374;-77
2022/05/14 01:36:25;;;;;;;14.25;6.45;;;12.30;99.90;;;;;;5021262;28;20079;-75
2022/05/14 01:38:55;;;;;;;16.40;6.35;;;13.30;99.90;;;;;;5022752;28;20029;-76
2022/05/14 01:41:21;;;;;;;17.90;6.47;;;12.30;99.90;;;;;;5021718;28;20032;-76
2022/05/14 01:43:47;;;;;;;17.58;5.95;;;12.30;99.90;;;;;;5017738;28;20026;-76
2022/05/14 01:46:13;;;;;;;14.93;5.65;;;12.30;99.90;;;;;;5031273;28;20513;-78
2022/05/14 01:48:38;;;;;;;13.43;5.53;;;12.30;99.90;;;;;;5021056;28;20100;-77
2022/05/14 01:51:04;;;;;;;16.00;5.13;;;12.30;99.90;;;;;;5020829;28;20026;-78
2022/05/14 01:53:30;;;;;;;17.15;5.43;;;12.30;99.90;;;;;;5025216;28;20083;-78
2022/05/14 01:55:55;;;;;;;23.33;5.80;;;12.20;99.90;;;;;;5025007;28;20482;-79
2022/05/14 01:58:36;;;;;;;19.48;5.45;;;12.20;99.90;;;;;;5027135;28;20037;-77
2022/05/14 02:01:15;;;;;;;19.63;5.57;;;12.10;99.90;;;;;;5007294;28;20485;-77
2022/05/14 02:03:44;;;;;;;15.20;5.03;;;12.10;99.90;;;;;;5023653;28;20030;-78
2022/05/14 02:06:10;;;;;;;15.50;6.00;;;12.10;99.90;;;;;;5019867;28;20092;-78
2022/05/14 02:08:36;;;;;;;14.95;4.70;;;12.10;99.90;;;;;;5019356;28;20503;-79
2022/05/14 02:11:02;;;;;;;15.13;5.95;;;12.10;99.90;;;;;;5019568;28;20025;-77
2022/05/14 02:13:28;;;;;;;20.00;6.00;;;12.00;99.90;;;;;;5020122;28;20036;-76
2022/05/14 02:15:54;;;;;;;14.75;5.43;;;12.00;99.90;;;;;;5026253;28;20030;-76
2022/05/14 02:18:21;;;;;;;13.30;4.57;;;12.00;99.90;;;;;;5022764;28;20432;-76
2022/05/14 02:20:47;;;;;;;15.10;6.15;;;11.90;99.90;;;;;;5021424;28;20052;-77
2022/05/14 02:23:13;;;;;;;19.60;5.72;;;12.00;99.90;;;;;;5019697;28;20029;-77
2022/05/14 02:25:39;;;;;;;15.88;5.50;;;11.90;99.90;;;;;;5022590;28;20469;-77
2022/05/14 02:28:05;;;;;;;13.15;5.28;;;11.90;99.90;;;;;;5022317;28;20033;-77
2022/05/14 02:30:30;;;;;;;15.02;6.15;;;11.90;99.90;;;;;;5020788;28;20037;-76
2022/05/14 02:32:56;;;;;;;18.48;5.35;;;11.90;99.90;;;;;;5018814;28;20026;-77
2022/05/14 02:35:22;;;;;;;18.30;6.22;;;11.80;99.90;;;;;;5019174;28;20025;-78
2022/05/14 02:37:47;;;;;;;14.32;5.57;;;11.80;99.90;;;;;;5016787;28;20037;-77
2022/05/14 02:40:13;;;;;;;16.40;6.28;;;11.80;99.90;;;;;;5019390;28;20116;-76
2022/05/14 02:42:39;;;;;;;18.33;6.93;;;11.80;99.90;;;;;;5020760;28;20034;-76
2022/05/14 02:45:05;;;;;;;18.38;7.45;;;11.80;99.90;;;;;;5021700;28;20033;-77
2022/05/14 02:47:31;;;;;;;15.07;6.70;;;11.80;99.90;;;;;;5016208;28;20041;-76
2022/05/14 02:49:57;;;;;;;22.40;8.63;;;11.70;99.90;;;;;;5024693;28;20038;-76
2022/05/14 02:52:23;;;;;;;18.17;8.05;;;11.60;99.90;;;;;;5019451;28;20033;-77
2022/05/14 02:54:49;;;;;;;19.48;7.35;;;11.70;99.90;;;;;;5027396;28;20026;-76
2022/05/14 02:57:15;;;;;;;18.20;7.78;;;11.60;99.90;;;;;;5023943;28;20022;-76
2022/05/14 02:59:41;;;;;;;25.95;8.30;;;11.70;99.90;;;;;;5028708;28;20532;-75
2022/05/14 03:02:07;;;;;;;19.35;8.07;;;11.70;99.90;;;;;;5025354;28;20324;-76
2022/05/14 03:04:37;;;;;;;23.52;9.02;;;11.70;99.90;;;;;;5030975;28;20490;-78
2022/05/14 03:07:06;;;;;;;22.58;8.73;;;11.70;99.90;;;;;;5023417;28;20064;-77
2022/05/14 03:09:33;;;;;;;25.88;8.80;;;11.70;99.90;;;;;;5023754;28;20045;-78
2022/05/14 03:11:59;;;;;;;28.98;9.80;;;11.70;99.90;;;;;;5023959;28;20033;-76
2022/05/14 03:14:24;;;;;;;21.95;8.18;;;11.70;99.90;;;;;;5021792;28;20084;-76
2022/05/14 03:16:50;;;;;;;27.05;10.35;;;11.60;99.90;;;;;;5024766;28;20052;-77
2022/05/14 03:19:16;;;;;;;35.72;10.48;;;11.60;99.90;;;;;;5024999;28;20114;-77
2022/05/14 03:21:42;;;;;;;20.33;9.35;;;11.60;99.90;;;;;;5021774;28;20028;-77
2022/05/14 03:24:08;;;;;;;21.50;9.88;;;11.60;99.90;;;;;;5018657;28;20041;-77
2022/05/14 03:26:34;;;;;;;24.30;10.40;;;11.60;99.90;;;;;;5025018;28;20045;-77
2022/05/14 03:28:59;;;;;;;23.05;9.15;;;11.50;99.90;;;;;;5025832;28;20478;-77
2022/05/14 03:31:25;;;;;;;22.30;9.80;;;11.50;99.90;;;;;;5023817;28;20026;-77
2022/05/14 03:33:51;;;;;;;21.00;9.77;;;11.50;99.90;;;;;;5022022;28;20029;-77
2022/05/14 03:36:16;;;;;;;26.48;10.40;;;11.60;99.90;;;;;;5026083;28;20041;-77
2022/05/14 03:38:42;;;;;;;26.90;11.38;;;11.50;99.90;;;;;;5021015;28;20033;-77
2022/05/14 03:41:08;;;;;;;22.25;10.43;;;11.50;99.90;;;;;;5027692;28;20037;-78
2022/05/14 03:43:33;;;;;;;28.33;11.15;;;11.50;99.90;;;;;;5022780;28;20505;-76
2022/05/14 03:45:59;;;;;;;22.42;9.60;;;11.50;99.90;;;;;;5023751;28;20056;-78
2022/05/14 03:48:25;;;;;;;23.08;10.27;;;11.40;99.90;;;;;;5024226;28;20057;-77
2022/05/14 03:50:52;;;;;;;21.13;10.32;;;11.40;99.90;;;;;;5024483;28;20552;-78
2022/05/14 03:53:17;;;;;;;26.17;10.50;;;11.40;99.90;;;;;;5024976;28;20026;-77
2022/05/14 03:55:43;;;;;;;20.55;9.45;;;11.40;99.90;;;;;;5027073;28;20036;-76
2022/05/14 03:58:08;;;;;;;30.83;11.05;;;11.40;99.90;;;;;;5024289;28;20044;-75
2022/05/14 04:00:34;;;;;;;29.38;10.55;;;11.40;99.90;;;;;;5024418;28;20527;-75
2022/05/14 04:03:00;;;;;;;27.27;11.45;;;11.40;99.90;;;;;;5024624;28;20105;-77
2022/05/14 04:05:25;;;;;;;21.13;10.43;;;12.30;99.90;;;;;;5024612;28;20136;-77
2022/05/14 04:07:51;;;;;;;24.35;11.25;;;11.50;99.90;;;;;;5023098;28;20025;-75
2022/05/14 04:10:17;;;;;;;25.40;11.02;;;11.40;99.90;;;;;;5024993;28;20088;-77
2022/05/14 04:12:43;;;;;;;20.52;11.10;;;11.50;99.90;;;;;;5025113;28;20104;-77
2022/05/14 04:15:10;;;;;;;32.55;11.75;;;11.50;99.90;;;;;;5026362;28;20025;-77
2022/05/14 04:17:36;;;;;;;23.80;11.05;;;11.50;99.90;;;;;;5016839;28;20041;-76
2022/05/14 04:20:01;;;;;;;27.70;11.50;;;11.50;99.90;;;;;;5022730;28;20030;-77
2022/05/14 04:22:27;;;;;;;30.15;10.68;;;11.50;99.90;;;;;;5021546;28;20041;-76
2022/05/14 04:24:53;;;;;;;31.00;11.02;;;11.50;99.90;;;;;;5023167;28;20033;-76
2022/05/14 04:27:19;;;;;;;28.02;11.80;;;11.60;99.90;;;;;;5020611;28;20500;-76
2022/05/14 04:29:44;;;;;;;24.73;11.88;;;11.60;99.90;;;;;;5018932;28;20145;-76
2022/05/14 04:32:10;;;;;;;38.75;12.00;;;11.60;99.90;;;;;;5023096;28;20026;-75
2022/05/14 04:34:35;;;;;;;33.47;11.48;;;11.70;99.90;;;;;;5020432;28;20075;-75
2022/05/14 04:37:01;;;;;;;26.20;10.90;;;11.50;99.90;;;;;;5016415;28;20022;-76
2022/05/14 04:39:32;;;;;;;26.40;11.50;;;11.60;99.90;;;;;;5020156;28;20025;-77
2022/05/14 04:42:00;;;;;;;22.10;10.48;;;12.00;99.90;;;;;;5011189;28;20466;-76
2022/05/14 04:44:30;;;;;;;26.30;10.60;;;11.60;99.90;;;;;;5020729;28;20109;-76
2022/05/14 04:46:56;;;;;;;30.23;10.52;;;11.60;99.90;;;;;;5023869;28;20033;-75
2022/05/14 04:49:22;;;;;;;22.05;11.30;;;11.60;99.90;;;;;;5021397;28;20038;-77
2022/05/14 04:51:48;;;;;;;25.63;11.75;;;11.70;99.90;;;;;;5023972;28;20044;-76
2022/05/14 04:54:14;;;;;;;30.48;13.77;;;11.70;99.90;;;;;;5023911;28;20026;-76
2022/05/14 04:56:40;;;;;;;24.40;11.52;;;11.70;99.90;;;;;;5021520;28;20017;-76
2022/05/14 04:59:05;;;;;;;32.10;11.38;;;11.80;99.90;;;;;;5020268;28;20046;-76
2022/05/14 05:01:31;;;;;;;30.20;11.65;;;11.80;99.90;;;;;;5024610;28;20461;-76
2022/05/14 05:03:58;;;;;;;25.00;10.73;;;11.50;99.90;;;;;;5024720;28;20045;-78
2022/05/14 05:06:23;;;;;;;32.47;11.55;;;11.90;99.90;;;;;;5022235;28;20030;-77
2022/05/14 05:08:52;;;;;;;32.80;13.05;;;11.90;99.90;;;;;;5019135;28;20100;-78
2022/05/14 05:11:19;;;;;;;29.40;12.95;;;11.90;99.90;;;;;;5025482;28;20025;-77
2022/05/14 05:13:45;;;;;;;24.20;10.95;;;12.00;99.90;;;;;;5024212;28;20033;-76
2022/05/14 05:16:11;;;;;;;19.95;10.55;;;12.20;99.90;;;;;;5023004;28;20499;-76
2022/05/14 05:18:37;;;;;;;28.67;11.60;;;12.40;99.90;;;;;;5026686;28;20047;-77
2022/05/14 05:21:03;;;;;;;29.10;12.52;;;12.50;99.90;;;;;;5018898;28;20032;-78
2022/05/14 05:23:29;;;;;;;37.80;12.15;;;12.60;99.90;;;;;;5021250;28;20025;-75
2022/05/14 05:25:56;;;;;;;32.05;11.23;;;12.80;99.90;;;;;;5023637;28;20355;-76
2022/05/14 05:28:23;;;;;;;27.00;11.60;;;12.90;99.90;;;;;;5024965;28;20044;-78
2022/05/14 05:30:49;;;;;;;27.98;12.18;;;12.90;99.90;;;;;;5027253;28;20120;-77
2022/05/14 05:33:22;;;;;;;31.83;11.63;;;13.00;99.90;;;;;;5025456;28;20109;-77
2022/05/14 05:35:48;;;;;;;24.08;10.93;;;13.10;99.90;;;;;;5022481;28;20026;-76
2022/05/14 05:38:14;;;;;;;29.15;12.02;;;13.20;99.90;;;;;;5020844;28;20022;-76
2022/05/14 05:40:40;;;;;;;23.27;11.95;;;13.20;99.90;;;;;;5019667;28;20091;-75
2022/05/14 05:43:07;;;;;;;29.50;11.48;;;13.30;99.90;;;;;;5020546;28;20374;-75
2022/05/14 05:45:33;;;;;;;25.50;11.23;;;13.40;99.90;;;;;;5022554;28;20050;-76
2022/05/14 05:47:58;;;;;;;28.33;11.27;;;13.50;99.90;;;;;;5011975;28;20028;-76
2022/05/14 05:50:25;;;;;;;25.95;11.98;;;13.60;99.90;;;;;;5027052;28;20033;-78
2022/05/14 05:52:52;;;;;;;28.20;12.68;;;13.60;99.90;;;;;;5025334;28;20033;-76
2022/05/14 05:58:04;;;;;;;26.40;11.52;;;13.60;99.90;;;;;;5022259;28;20167;-79
2022/05/14 06:00:30;;;;;;;28.17;11.07;;;13.60;99.90;;;;;;5022758;28;20461;-77
2022/05/14 06:02:57;;;;;;;27.90;11.32;;;13.60;99.90;;;;;;5022241;28;20600;-77
2022/05/14 06:05:23;;;;;;;31.33;12.10;;;13.70;99.90;;;;;;5027030;28;20069;-77
2022/05/14 06:07:48;;;;;;;24.10;11.10;;;13.80;99.90;;;;;;5029246;28;20103;-76
2022/05/14 06:10:16;;;;;;;33.22;11.55;;;13.80;99.90;;;;;;5026687;28;20470;-75
2022/05/14 06:12:42;;;;;;;27.25;12.20;;;13.80;99.90;;;;;;5023689;28;20026;-77
2022/05/14 06:15:14;;;;;;;31.40;11.77;;;13.80;99.90;;;;;;5024200;28;20437;-76
2022/05/14 06:17:40;;;;;;;26.77;11.15;;;13.90;99.90;;;;;;5021089;28;20057;-78
2022/05/14 06:20:09;;;;;;;28.17;11.32;;;13.90;99.90;;;;;;5026695;28;20022;-79
2022/05/14 06:22:35;;;;;;;26.98;11.10;;;13.90;99.90;;;;;;5027089;28;20022;-75
2022/05/14 06:25:01;;;;;;;23.17;11.52;;;13.90;99.90;;;;;;5026854;28;20044;-75
2022/05/14 06:27:26;;;;;;;27.20;10.52;;;14.00;99.90;;;;;;5031267;28;20021;-76
2022/05/14 06:29:52;;;;;;;27.38;11.60;;;14.00;99.90;;;;;;5033359;28;20068;-76
2022/05/14 06:32:18;;;;;;;24.15;10.98;;;14.00;99.90;;;;;;5034563;28;20013;-76
2022/05/14 06:34:43;;;;;;;32.20;11.57;;;14.00;99.90;;;;;;5034783;28;20822;-77
2022/05/14 06:37:08;;;;;;;24.50;11.13;;;14.10;99.90;;;;;;5037327;28;20212;-77
2022/05/14 06:39:34;;;;;;;29.27;11.45;;;14.20;99.90;;;;;;5031319;28;20033;-77
2022/05/14 06:42:00;;;;;;;25.40;11.13;;;14.20;99.90;;;;;;5033415;28;20023;-75
2022/05/14 06:44:25;;;;;;;32.20;11.65;;;14.30;99.90;;;;;;5032116;28;20022;-76
2022/05/14 06:46:51;;;;;;;31.02;12.50;;;14.30;99.90;;;;;;5036197;28;20026;-76
2022/05/14 06:49:16;;;;;;;24.08;11.52;;;14.40;99.90;;;;;;5033953;28;20464;-77
2022/05/14 06:51:42;;;;;;;33.60;11.90;;;14.40;99.90;;;;;;5033869;28;20398;-77
2022/05/14 06:54:10;;;;;;;26.58;10.73;;;14.40;99.90;;;;;;5033914;28;20029;-76
2022/05/14 06:56:42;;;;;;;34.97;12.55;;;14.50;99.90;;;;;;5032406;28;20036;-76
2022/05/14 06:59:09;;;;;;;25.08;11.23;;;14.50;99.90;;;;;;5034939;28;20025;-76
2022/05/14 07:01:38;;;;;;;22.42;11.13;;;14.70;99.90;;;;;;5031752;28;20021;-75
2022/05/14 07:06:51;;;;;;;26.17;10.02;;;14.80;99.90;;;;;;5032161;28;20052;-76
2022/05/14 07:09:27;;;;;;;20.10;9.57;;;14.90;99.90;;;;;;5033623;28;20038;-75
2022/05/14 07:11:56;;;;;;;23.98;10.18;;;15.00;99.90;;;;;;5034109;28;20021;-75
2022/05/14 07:14:24;;;;;;;20.48;8.23;;;15.00;99.90;;;;;;5035413;28;20029;-77
2022/05/14 07:16:50;;;;;;;20.55;7.88;;;15.00;99.90;;;;;;5035347;28;20389;-78
2022/05/14 07:19:16;;;;;;;22.95;7.40;;;15.20;99.90;;;;;;5032377;28;20032;-77
2022/05/14 07:21:44;;;;;;;21.42;7.38;;;15.20;99.90;;;;;;5033167;28;20025;-76
2022/05/14 07:24:15;;;;;;;18.10;6.32;;;15.90;99.90;;;;;;5034989;28;20032;-75
2022/05/14 07:26:41;;;;;;;22.83;7.30;;;15.50;99.90;;;;;;5026357;28;20022;-76
2022/05/14 07:29:09;;;;;;;22.15;6.85;;;15.70;99.90;;;;;;5030081;28;20040;-75
2022/05/14 07:31:35;;;;;;;19.85;6.53;;;15.80;99.90;;;;;;5033313;28;20030;-75
2022/05/14 07:34:02;;;;;;;15.93;6.80;;;15.90;99.90;;;;;;5029385;28;20120;-75
2022/05/14 07:36:32;;;;;;;21.88;6.88;;;16.00;99.90;;;;;;5033910;28;20037;-75
2022/05/14 07:39:00;;;;;;;19.13;6.60;;;16.20;99.90;;;;;;5025513;28;20014;-75
2022/05/14 07:41:28;;;;;;;16.90;5.93;;;16.30;99.90;;;;;;5028509;28;20033;-74
2022/05/14 07:43:55;;;;;;;16.52;7.45;;;16.30;99.90;;;;;;5032068;28;20048;-75
2022/05/14 07:46:26;;;;;;;28.40;7.22;;;16.40;99.90;;;;;;5018673;28;20088;-76
2022/05/14 07:48:53;;;;;;;21.63;7.28;;;16.40;99.90;;;;;;5019465;28;20335;-74
2022/05/14 07:51:19;;;;;;;17.63;6.82;;;16.40;99.90;;;;;;5021708;28;20033;-73
2022/05/14 07:53:46;;;;;;;20.77;6.90;;;16.40;99.90;;;;;;5017428;28;20034;-74
2022/05/14 07:56:12;;;;;;;20.55;6.53;;;16.40;99.90;;;;;;5028736;28;20124;-77
2022/05/14 07:58:40;;;;;;;25.05;6.72;;;16.30;99.90;;;;;;5030946;28;20025;-77
2022/05/14 08:01:05;;;;;;;23.95;8.10;;;16.40;99.90;;;;;;5015931;28;20437;-76
2022/05/14 08:03:32;;;;;;;24.85;6.70;;;16.40;99.90;;;;;;5023560;28;20096;-76
2022/05/14 08:05:58;;;;;;;20.35;5.43;;;16.40;99.90;;;;;;5026087;28;20048;-76
2022/05/14 08:08:25;;;;;;;17.92;4.80;;;16.40;99.90;;;;;;5023194;28;20077;-78
2022/05/14 08:10:51;;;;;;;13.18;4.82;;;17.00;99.90;;;;;;5016045;28;20080;-76
2022/05/14 08:13:19;;;;;;;24.00;5.80;;;16.60;99.90;;;;;;5028522;28;20076;-78
2022/05/14 08:15:46;;;;;;;21.33;5.95;;;16.70;99.90;;;;;;5004279;28;20030;-77
2022/05/14 08:18:12;;;;;;;28.17;6.22;;;16.90;99.90;;;;;;5016229;28;20252;-77
2022/05/14 08:20:39;;;;;;;15.30;4.55;;;17.00;99.90;;;;;;5006753;28;20034;-79
2022/05/14 08:25:51;;;;;;;17.08;5.18;;;17.10;99.90;;;;;;5003987;28;20045;-84
2022/05/14 08:28:16;;;;;;;21.08;5.75;;;17.20;99.90;;;;;;5009186;28;20027;-75
2022/05/14 08:30:42;;;;;;;14.02;5.47;;;17.30;99.90;;;;;;5005732;28;20510;-75
2022/05/14 08:33:07;;;;;;;21.15;4.95;;;17.30;99.90;;;;;;5010222;28;20089;-77
2022/05/14 08:35:34;;;;;;;19.63;5.05;;;17.20;99.90;;;;;;5014504;28;20228;-76
2022/05/14 08:37:59;;;;;;;14.23;3.97;;;17.30;99.90;;;;;;5006960;28;20022;-75
2022/05/14 08:40:29;;;;;;;15.52;3.85;;;17.30;99.90;;;;;;5004820;28;20037;-74
2022/05/14 08:42:59;;;;;;;18.13;5.53;;;17.40;99.90;;;;;;5004584;28;20041;-76
2022/05/14 08:45:26;;;;;;;17.65;5.18;;;17.50;99.90;;;;;;5016822;28;20064;-74
2022/05/14 08:48:07;;;;;;;20.55;4.90;;;17.60;99.90;;;;;;5031457;28;20048;-77
2022/05/14 08:50:37;;;;;;;16.88;4.38;;;17.60;99.90;;;;;;5017315;28;20318;-77
2022/05/14 08:53:06;;;;;;;14.35;3.88;;;17.70;99.90;;;;;;5022085;28;20029;-77
2022/05/14 08:55:39;;;;;;;19.92;4.28;;;17.70;99.90;;;;;;5022936;28;20092;-78
2022/05/14 08:58:22;;;;;;;18.48;4.53;;;17.70;99.90;;;;;;5021018;28;20025;-77
2022/05/14 09:00:48;;;;;;;14.77;4.18;;;17.80;99.90;;;;;;5021783;28;20049;-78
2022/05/14 09:03:14;;;;;;;23.70;4.75;;;17.90;99.90;;;;;;5026951;28;20040;-77
2022/05/14 09:05:39;;;;;;;16.27;3.72;;;17.90;99.90;;;;;;5022388;28;20098;-76
2022/05/14 09:08:06;;;;;;;16.75;4.22;;;18.00;99.90;;;;;;5021466;28;20124;-76
2022/05/14 09:10:38;;;;;;;14.20;4.75;;;18.00;99.90;;;;;;5017769;28;20083;-78
2022/05/14 09:13:21;;;;;;;15.65;5.43;;;18.10;99.90;;;;;;5015839;28;20030;-77
2022/05/14 09:15:50;;;;;;;14.57;4.28;;;18.20;99.90;;;;;;5022691;28;20040;-78
2022/05/14 09:18:28;;;;;;;16.80;3.92;;;18.30;99.90;;;;;;5032643;28;20084;-77
2022/05/14 09:20:58;;;;;;;14.15;3.97;;;18.50;99.90;;;;;;5014627;28;20030;-77
2022/05/14 09:23:37;;;;;;;8.77;3.60;;;18.60;99.90;;;;;;5024896;28;20083;-76
2022/05/14 09:26:22;;;;;;;20.25;4.07;;;18.70;99.90;;;;;;5022238;28;20038;-77
2022/05/14 09:29:23;;;;;;;11.55;3.60;;;18.80;99.90;;;;;;5018418;28;20037;-77
2022/05/14 09:32:04;;;;;;;15.98;3.75;;;18.80;99.90;;;;;;5028005;28;20064;-76
2022/05/14 09:34:33;;;;;;;16.30;4.75;;;18.80;99.50;;;;;;5009425;28;20037;-78
2022/05/14 09:37:16;;;;;;;8.73;3.28;;;18.70;99.20;;;;;;5025085;28;20041;-77
2022/05/14 09:39:41;;;;;;;9.75;3.13;;;18.60;99.40;;;;;;5027132;28;20030;-77
2022/05/14 09:42:29;;;;;;;12.70;4.03;;;18.70;99.50;;;;;;5026814;28;20135;-76
2022/05/14 09:44:57;;;;;;;16.10;4.38;;;18.80;99.50;;;;;;5026036;28;20025;-77
2022/05/14 09:47:28;;;;;;;15.63;4.45;;;18.90;99.40;;;;;;5017289;28;20231;-77
2022/05/14 09:50:00;;;;;;;12.10;3.95;;;19.00;99.40;;;;;;5026632;28;20116;-75
2022/05/14 09:52:29;;;;;;;12.27;4.03;;;19.10;98.80;;;;;;5017286;28;20037;-77
2022/05/14 09:54:56;;;;;;;18.98;4.35;;;19.20;98.60;;;;;;5019948;28;20058;-77
2022/05/14 09:57:46;;;;;;;18.30;4.93;;;19.40;98.50;;;;;;5016356;28;20037;-77
2022/05/14 10:00:21;;;;;;;18.02;4.82;;;19.60;98.70;;;;;;5008328;28;20046;-76
2022/05/14 10:03:29;;;;;;;14.38;4.40;;;19.90;98.50;;;;;;5015817;28;20486;-78
2022/05/14 10:06:04;;;;;;;13.63;4.85;;;19.90;97.60;;;;;;5024852;28;20374;-75
2022/05/14 10:08:35;;;;;;;12.23;4.30;;;19.90;97.60;;;;;;5024134;28;20426;-75
2022/05/14 10:11:26;;;;;;;15.02;5.85;;;20.00;97.20;;;;;;5021523;28;20075;-77
2022/05/14 10:14:27;;;;;;;17.67;5.65;;;20.00;96.90;;;;;;5025744;28;20028;-77
2022/05/14 10:17:13;;;;;;;13.57;5.15;;;20.00;96.30;;;;;;5017715;28;20022;-76
2022/05/14 10:20:07;;;;;;;15.10;4.88;;;20.10;96.20;;;;;;5019221;28;20060;-75
2022/05/14 10:29:24;;;;;;;13.55;4.13;;;20.20;96.60;;;;;;5001106;28;20120;-78
2022/05/14 10:32:08;;;;;;;13.38;4.95;;;20.30;96.50;;;;;;5019716;28;20083;-75
2022/05/14 10:35:24;;;;;;;14.95;4.88;;;20.20;96.20;;;;;;5019725;28;20343;-76
2022/05/14 10:37:56;;;;;;;16.42;4.72;;;20.30;96.20;;;;;;4996328;28;20022;-76
2022/05/14 10:40:53;;;;;;;12.85;4.65;;;20.40;95.70;;;;;;4998080;28;20588;-75
2022/05/14 10:43:56;;;;;;;13.40;4.43;;;20.40;95.50;;;;;;5007019;28;20052;-76
2022/05/14 10:46:23;;;;;;;21.60;5.38;;;20.40;96.00;;;;;;5014024;28;20144;-76
2022/05/14 10:48:57;;;;;;;11.70;4.47;;;20.30;96.00;;;;;;5019240;28;20037;-77
2022/05/14 10:51:29;;;;;;;12.10;4.70;;;20.30;95.70;;;;;;5023337;28;20021;-77
2022/05/14 10:53:56;;;;;;;18.15;4.53;;;20.40;95.60;;;;;;5016268;28;20453;-77
2022/05/14 10:56:27;;;;;;;12.98;3.97;;;20.40;95.40;;;;;;5021215;28;21696;-77
2022/05/14 10:59:12;;;;;;;18.52;4.80;;;20.30;95.50;;;;;;5020772;28;20029;-76
2022/05/14 11:01:46;;;;;;;15.80;5.25;;;20.40;95.10;;;;;;5016057;28;20077;-76
2022/05/14 11:04:23;;;;;;;16.80;5.13;;;20.50;94.80;;;;;;5016323;28;20126;-76
2022/05/14 11:06:49;;;;;;;16.58;5.65;;;20.50;94.90;;;;;;5023953;28;20029;-76
2022/05/14 11:09:21;;;;;;;15.25;5.00;;;20.40;94.70;;;;;;5028157;28;20489;-78
2022/05/14 11:11:49;;;;;;;23.27;5.72;;;20.40;94.60;;;;;;5017468;28;20989;-77
2022/05/14 11:14:15;;;;;;;11.52;4.65;;;20.50;94.70;;;;;;5026914;28;20488;-77
2022/05/14 11:16:48;;;;;;;14.55;4.80;;;20.60;95.80;;;;;;5022354;28;20018;-77
2022/05/14 11:19:27;;;;;;;11.15;4.15;;;20.90;95.00;;;;;;5020543;28;20065;-77
2022/05/14 11:21:55;;;;;;;18.10;6.13;;;21.10;94.80;;;;;;5024169;28;20516;-78
2022/05/14 11:24:41;;;;;;;13.20;5.28;;;21.10;94.10;;;;;;5024876;28;20033;-76
2022/05/14 11:27:09;;;;;;;11.20;4.88;;;21.10;94.20;;;;;;5019430;28;20075;-77
2022/05/14 11:29:47;;;;;;;13.00;5.05;;;21.10;95.20;;;;;;5026875;28;20037;-77
2022/05/14 11:32:16;;;;;;;20.00;6.38;;;20.90;95.00;;;;;;5022275;28;20030;-78
2022/05/14 11:34:55;;;;;;;15.60;6.45;;;20.90;94.50;;;;;;5017509;28;20038;-75
2022/05/14 11:37:36;;;;;;;15.55;5.82;;;20.80;94.30;;;;;;5014290;28;20053;-76
2022/05/14 11:40:12;;;;;;;14.15;5.18;;;20.80;94.80;;;;;;5021161;28;20084;-78
2022/05/14 11:42:38;;;;;;;14.15;5.00;;;20.80;94.50;;;;;;5023028;28;20441;-77
2022/05/14 11:45:12;;;;;;;14.65;6.07;;;21.00;94.90;;;;;;5020613;28;20570;-77
2022/05/14 11:47:46;;;;;;;18.48;5.85;;;21.20;94.30;;;;;;5025132;28;20061;-77
2022/05/14 11:50:14;;;;;;;17.77;6.13;;;21.50;94.00;;;;;;5022561;28;20073;-78
2022/05/14 11:52:50;;;;;;;15.60;5.32;;;21.70;93.70;;;;;;5023600;28;20036;-77
2022/05/14 11:55:21;;;;;;;13.48;6.10;;;21.70;93.50;;;;;;5024228;28;20032;-77
2022/05/14 11:58:02;;;;;;;15.13;5.88;;;21.80;93.20;;;;;;5025479;28;20021;-77
2022/05/14 12:00:32;;;;;;;16.90;6.68;;;21.80;92.80;;;;;;5021735;28;20525;-78
2022/05/14 12:03:13;;;;;;;21.73;7.60;;;21.60;93.10;;;;;;5020250;28;20104;-76
2022/05/14 12:06:07;;;;;;;26.27;7.80;;;21.60;93.40;;;;;;5021685;28;20030;-76
2022/05/14 12:08:41;;;;;;;13.85;6.68;;;21.40;93.30;;;;;;5022506;28;20108;-76
2022/05/14 12:11:31;;;;;;;13.77;5.53;;;21.30;93.60;;;;;;5022060;28;20286;-78
2022/05/14 12:14:16;;;;;;;12.77;5.88;;;21.20;94.20;;;;;;5017768;28;20466;-78
2022/05/14 12:16:50;;;;;;;16.27;7.03;;;21.30;94.10;;;;;;5022094;28;20029;-78
2022/05/14 12:19:19;;;;;;;19.27;6.00;;;21.40;93.70;;;;;;5017650;28;20026;-78
2022/05/14 12:21:52;;;;;;;14.30;5.70;;;21.70;93.60;;;;;;5031417;28;20026;-78
2022/05/14 12:24:23;;;;;;;22.08;7.68;;;22.00;92.70;;;;;;5026627;28;20108;-78
2022/05/14 12:26:49;;;;;;;18.30;5.80;;;22.10;92.70;;;;;;5029025;28;20017;-78
2022/05/14 12:29:21;;;;;;;15.40;5.15;;;22.30;93.50;;;;;;5030698;28;20438;-76
2022/05/14 12:34:41;;;;;;;16.63;6.85;;;22.70;92.10;;;;;;5017441;28;20033;-78
2022/05/14 12:37:17;;;;;;;17.23;6.15;;;22.90;92.30;;;;;;5021159;28;20218;-78
2022/05/14 12:39:44;;;;;;;15.98;6.22;;;23.20;91.00;;;;;;5024568;28;20033;-79
2022/05/14 12:42:10;;;;;;;12.65;6.10;;;23.10;90.20;;;;;;5023151;28;20033;-77
2022/05/14 12:44:44;;;;;;;16.98;6.15;;;23.00;89.60;;;;;;5028437;28;20104;-77
2022/05/14 12:47:10;;;;;;;17.92;6.47;;;22.70;90.90;;;;;;5032481;28;20026;-78
2022/05/14 12:49:46;;;;;;;15.98;6.78;;;22.40;91.70;;;;;;5029031;28;20038;-76
2022/05/14 12:52:19;;;;;;;13.73;6.15;;;22.10;92.80;;;;;;5021653;28;20072;-77
2022/05/14 12:55:03;;;;;;;19.55;6.78;;;21.90;92.90;;;;;;5021776;28;20034;-76
2022/05/14 12:57:33;;;;;;;20.67;7.38;;;21.90;92.90;;;;;;5012353;28;20203;-77
2022/05/14 13:00:00;;;;;;;18.43;7.87;;;22.10;92.30;;;;;;5019777;28;20050;-78
2022/05/14 13:02:31;;;;;;;19.60;7.25;;;22.30;92.10;;;;;;5020288;28;20021;-78
2022/05/14 13:05:31;;;;;;;13.60;6.22;;;22.40;91.70;;;;;;5026377;28;20029;-76
2022/05/14 13:08:06;;;;;;;21.20;6.80;;;22.70;91.80;;;;;;5020488;28;20489;-78
2022/05/14 13:10:32;;;;;;;26.13;7.07;;;23.00;91.60;;;;;;5025244;28;20045;-77